Airfield :
LOGIN :

Register | Disclaimer

   EN    FR    IT 

 










Legend :    VFR   Marginal VFR   IFR   Intensive IFR   Very Intensive IFR
Visi :
Ceiling :
>= 8 km
>= 3000ft
5 to 8 km
1000 to 3000 ft
1500m to 5 km
500 to 1000 ft
800 to 1500m
200 to 500 ft
< 800m
< 200 ft
Symbols :   Thunderstorms  Fog  Heavy snow  Heavy precipitations  Wind > 20 kt
SIGMETs :     Misc.  Thunderstorms  Icing  Turbulence  Mountain Waves  Volcanic Ashes







- Airport Elevation : 1197 ft
- IATA code : SPM


ETAD - Spangdahlem Ab

CURRENT METAR :
  • 211256Z AUTO 22006KT 9999 FEW170 SCT200 26/12 A2989 RMK AO2 SLP097 T02560121 $

EXPIRED METARs :
  • 211156Z AUTO 25005KT 9999 FEW130 FEW150 FEW180 SCT200 25/11 A2989 RMK AO2 SLP097 T02520114 10256 20170 50001 $
  • 211056Z AUTO 00000KT 9999 CLR 24/12 A2990 RMK AO2 SLP102 T02440120 $
  • 210956Z AUTO 19006KT 9999 FEW100 SCT160 SCT200 22/12 A2990 RMK AO2 SLP102 T02200120 $

TAF AMD TAF ETAD
Valid from the 21 at 12:00 until the 22 at 17:00 UTC


211235Z 2112/2217 17009KT 8000 -SHRA BKN040 QNH2986INS
TEMPO 2112/2118 6000 -TSRA BKN040CB
BECMG 2118/2119 VRB06KT 9999 NSW BKN050 QNH2988INS
BECMG 2200/2201 VRB03KT 8000 BR BKN045 QNH2991INS
BECMG 2205/2206 30009KT 9999 NSW BKN040 QNH2993INS TX28/2112Z TN16/2204Z
No reported NOTAMs for that airfield.



MET'MAP, your aeronautical weather chart ! - Copyright ORBIFLY December 2007 - Disclaimer

ORBIFLY MET'MAP TEAM :

Programming & Development : Alexandra Zaïnal
Concept & Development : Baudouin d'Aumeries
Co-Development & Prog : Marc-Olivier Méhu
Technical & hardware support : Manuel Goepfert

Contact : metmap@orbifly.com




SOURCES & CREDITS :

   NOAA